Time;durP1;ratioP1;P1;durP2;ratioP2;P2;SDS_P1;SDS_P2;PMS_P1;PMS_P2;Temp;Humidity;BMP_temperature;BMP_pressure;BME280_temperature;BME280_humidity;BME280_pressure;Samples;Min_cycle;Max_cycle;Signal;HPM_P1;HPM_P2
2022/06/23 00:01:14;;;;;;;14.20;10.73;;;;;;;;;;5074124;28;20999;-75
2022/06/23 00:03:42;;;;;;;14.57;11.80;;;;;;;;;;5073848;28;20535;-75
2022/06/23 00:06:16;;;;;;;13.77;12.13;;;;;;;;;;5073834;28;20455;-75
2022/06/23 00:08:46;;;;;;;15.20;13.23;;;;;;;;;;5064961;28;20518;-75
2022/06/23 00:11:20;;;;;;;14.53;12.00;;;;;;;;;;5054334;28;20457;-75
2022/06/23 00:13:47;;;;;;;15.17;13.00;;;;;;;;;;5055153;28;20445;-77
2022/06/23 00:16:16;;;;;;;15.03;13.47;;;;;;;;;;5054864;28;20975;-75
2022/06/23 00:18:43;;;;;;;16.97;15.27;;;;;;;;;;5055563;28;20502;-75
2022/06/23 00:21:13;;;;;;;16.97;14.83;;;;;;;;;;5054495;28;20511;-76
2022/06/23 00:23:42;;;;;;;18.00;14.73;;;;;;;;;;5056798;28;20455;-74
2022/06/23 00:26:12;;;;;;;16.63;14.57;;;;;;;;;;5066744;28;20445;-75
2022/06/23 00:28:45;;;;;;;18.00;16.13;;;;;;;;;;5073431;28;20466;-75
2022/06/23 00:31:24;;;;;;;17.73;14.83;;;;;;;;;;5073396;28;20473;-75
2022/06/23 00:33:51;;;;;;;19.87;17.47;;;;;;;;;;5073773;28;20440;-75
2022/06/23 00:36:19;;;;;;;20.07;16.33;;;;;;;;;;5073949;28;20445;-74
2022/06/23 00:38:47;;;;;;;19.10;17.10;;;;;;;;;;5073408;28;20477;-75
2022/06/23 00:41:17;;;;;;;21.27;16.43;;;;;;;;;;5073626;28;20506;-75
2022/06/23 00:43:45;;;;;;;18.90;17.10;;;;;;;;;;5073388;28;20963;-74
2022/06/23 00:46:16;;;;;;;17.30;15.67;;;;;;;;;;5073534;28;20859;-75
2022/06/23 00:48:44;;;;;;;17.90;16.00;;;;;;;;;;5073580;28;20490;-75
2022/06/23 00:51:15;;;;;;;18.20;16.33;;;;;;;;;;5073365;28;20487;-75
2022/06/23 00:53:46;;;;;;;18.43;16.53;;;;;;;;;;5073131;28;20445;-76
2022/06/23 00:56:21;;;;;;;17.70;15.93;;;;;;;;;;5073153;28;20982;-75
2022/06/23 00:58:50;;;;;;;18.20;15.73;;;;;;;;;;5073493;28;20868;-75
2022/06/23 01:01:19;;;;;;;17.37;15.57;;;;;;;;;;5073304;28;20461;-75
2022/06/23 01:03:51;;;;;;;18.93;17.03;;;;;;;;;;5073133;28;20440;-74
2022/06/23 01:06:20;;;;;;;21.30;16.47;;;;;;;;;;5073094;28;20507;-74
2022/06/23 01:08:51;;;;;;;17.57;15.77;;;;;;;;;;5063426;28;20460;-75
2022/06/23 01:11:23;;;;;;;19.30;16.63;;;;;;;;;;5053031;28;20508;-74
2022/06/23 01:13:52;;;;;;;18.33;15.90;;;;;;;;;;5052749;28;20491;-74
2022/06/23 01:16:21;;;;;;;17.37;15.67;;;;;;;;;;5053081;28;20519;-75
2022/06/23 01:18:51;;;;;;;22.07;17.23;;;;;;;;;;5052666;28;20477;-75
2022/06/23 01:21:21;;;;;;;20.17;17.50;;;;;;;;;;5052951;28;20461;-76
2022/06/23 01:24:03;;;;;;;21.10;17.07;;;;;;;;;;5052494;28;20977;-75
2022/06/23 01:26:57;;;;;;;19.53;17.60;;;;;;;;;;5052665;28;20499;-76
2022/06/23 01:29:29;;;;;;;18.80;16.80;;;;;;;;;;5016562;28;20454;-74
2022/06/23 01:31:57;;;;;;;19.93;16.50;;;;;;;;;;5052457;28;20472;-76
2022/06/23 01:34:35;;;;;;;19.03;17.27;;;;;;;;;;5052395;28;20520;-75
2022/06/23 01:37:05;;;;;;;17.13;15.53;;;;;;;;;;5052411;28;20441;-74
2022/06/23 01:39:36;;;;;;;18.73;17.00;;;;;;;;;;5052324;28;20529;-75
2022/06/23 01:42:06;;;;;;;17.87;16.07;;;;;;;;;;5051101;28;20461;-75
2022/06/23 01:44:41;;;;;;;16.07;14.53;;;;;;;;;;5052268;28;20441;-75
2022/06/23 01:47:14;;;;;;;15.90;14.10;;;;;;;;;;5052274;28;20959;-76
2022/06/23 01:49:43;;;;;;;18.63;14.70;;;;;;;;;;5052400;28;20433;-75
2022/06/23 01:52:11;;;;;;;17.80;15.50;;;;;;;;;;5051808;28;20511;-76
2022/06/23 01:54:39;;;;;;;17.20;15.13;;;;;;;;;;5051903;28;20567;-76
2022/06/23 01:57:09;;;;;;;16.27;14.93;;;;;;;;;;5051871;28;20475;-76
2022/06/23 01:59:48;;;;;;;17.70;15.00;;;;;;;;;;5052275;28;20473;-76
2022/06/23 02:02:21;;;;;;;17.67;12.87;;;;;;;;;;5052646;28;20497;-74
2022/06/23 02:04:51;;;;;;;14.17;12.87;;;;;;;;;;5053378;28;20430;-75
2022/06/23 02:07:20;;;;;;;16.10;13.10;;;;;;;;;;5052025;28;20794;-74
2022/06/23 02:09:50;;;;;;;14.60;13.20;;;;;;;;;;5052061;28;20468;-75
2022/06/23 02:12:19;;;;;;;15.20;13.37;;;;;;;;;;5051706;28;20975;-75
2022/06/23 02:14:51;;;;;;;14.93;13.40;;;;;;;;;;5052242;28;20434;-75
2022/06/23 02:17:25;;;;;;;13.77;12.20;;;;;;;;;;5051993;28;20472;-75
2022/06/23 02:19:54;;;;;;;13.83;9.97;;;;;;;;;;5051807;28;20536;-75
2022/06/23 02:22:23;;;;;;;11.87;9.00;;;;;;;;;;5052100;28;20442;-75
2022/06/23 02:24:53;;;;;;;11.70;9.40;;;;;;;;;;5051363;28;20441;-75
2022/06/23 02:27:21;;;;;;;14.60;8.97;;;;;;;;;;5051644;28;20454;-75
2022/06/23 02:29:54;;;;;;;10.03;7.80;;;;;;;;;;5051561;28;20449;-74
2022/06/23 02:32:25;;;;;;;8.80;6.73;;;;;;;;;;5051549;28;20453;-74
2022/06/23 02:34:55;;;;;;;9.00;7.00;;;;;;;;;;5051434;28;20437;-75
2022/06/23 02:37:40;;;;;;;9.43;7.70;;;;;;;;;;5051587;28;20486;-74
2022/06/23 02:40:16;;;;;;;9.80;7.00;;;;;;;;;;5051394;28;20457;-74
2022/06/23 02:42:43;;;;;;;13.93;6.83;;;;;;;;;;5051694;28;20444;-75
2022/06/23 02:45:24;;;;;;;13.80;7.70;;;;;;;;;;5051622;28;20491;-75
2022/06/23 02:48:07;;;;;;;15.37;7.70;;;;;;;;;;5051568;28;20437;-75
2022/06/23 02:50:50;;;;;;;9.60;6.40;;;;;;;;;;5051608;28;20487;-75
2022/06/23 02:53:26;;;;;;;10.80;7.50;;;;;;;;;;5050871;28;20495;-75
2022/06/23 02:56:02;;;;;;;12.47;7.47;;;;;;;;;;5051678;28;20810;-75
2022/06/23 02:58:32;;;;;;;10.77;6.80;;;;;;;;;;5051663;28;20461;-75
2022/06/23 03:01:02;;;;;;;10.77;6.87;;;;;;;;;;5051528;28;20461;-75
2022/06/23 03:03:33;;;;;;;11.70;7.40;;;;;;;;;;5051265;28;20448;-75
2022/06/23 03:06:02;;;;;;;11.33;7.13;;;;;;;;;;5051486;28;20512;-75
2022/06/23 03:08:32;;;;;;;12.40;6.80;;;;;;;;;;5051464;28;20429;-75
2022/06/23 03:11:00;;;;;;;10.30;7.10;;;;;;;;;;5051444;28;20535;-74
2022/06/23 03:13:31;;;;;;;13.13;7.63;;;;;;;;;;5051085;28;21007;-75
2022/06/23 03:16:03;;;;;;;12.70;7.00;;;;;;;;;;5051423;28;20453;-74
2022/06/23 03:18:34;;;;;;;12.30;6.40;;;;;;;;;;5051043;28;20518;-75
2022/06/23 03:21:03;;;;;;;12.93;7.10;;;;;;;;;;5051551;28;20519;-75
2022/06/23 03:23:33;;;;;;;12.07;6.70;;;;;;;;;;5051040;28;20445;-76
2022/06/23 03:26:06;;;;;;;13.83;6.80;;;;;;;;;;5050971;28;20925;-75
2022/06/23 03:28:36;;;;;;;13.63;7.17;;;;;;;;;;5051298;28;20498;-74
2022/06/23 03:31:07;;;;;;;12.37;7.23;;;;;;;;;;5051469;28;20466;-76
2022/06/23 03:33:36;;;;;;;9.47;6.23;;;;;;;;;;5050869;28;20464;-76
2022/06/23 03:36:05;;;;;;;9.47;6.77;;;;;;;;;;5051095;28;20870;-75
2022/06/23 03:41:38;;;;;;;12.30;6.53;;;;;;;;;;5051030;28;20945;-75
2022/06/23 03:44:08;;;;;;;11.00;7.10;;;;;;;;;;5050528;28;20867;-75
2022/06/23 03:46:39;;;;;;;9.70;6.50;;;;;;;;;;5051314;28;20491;-75
2022/06/23 03:49:12;;;;;;;13.30;7.33;;;;;;;;;;5050855;28;20453;-75
2022/06/23 03:51:40;;;;;;;12.50;7.43;;;;;;;;;;5050958;28;20461;-75
2022/06/23 03:54:11;;;;;;;10.73;6.13;;;;;;;;;;5050640;28;20860;-74
2022/06/23 03:56:43;;;;;;;10.10;6.90;;;;;;;;;;5051175;28;20436;-74
2022/06/23 03:59:15;;;;;;;11.70;7.60;;;;;;;;;;5050891;28;20507;-76
2022/06/23 04:01:46;;;;;;;8.67;6.97;;;;;;;;;;5050903;28;20883;-76
2022/06/23 04:04:15;;;;;;;9.43;6.50;;;;;;;;;;5053088;28;20507;-75
2022/06/23 04:06:43;;;;;;;11.37;6.60;;;;;;;;;;5061520;28;20524;-77
2022/06/23 04:09:12;;;;;;;11.07;6.93;;;;;;;;;;5061370;28;20437;-75
2022/06/23 04:11:55;;;;;;;8.13;6.77;;;;;;;;;;5068933;28;20519;-76
2022/06/23 04:14:26;;;;;;;11.00;7.30;;;;;;;;;;5073881;28;20490;-74
2022/06/23 04:16:56;;;;;;;14.43;7.97;;;;;;;;;;5074459;28;20433;-75
2022/06/23 04:19:25;;;;;;;10.60;7.30;;;;;;;;;;5074096;28;20477;-75
2022/06/23 04:21:58;;;;;;;13.57;7.70;;;;;;;;;;5073776;28;21030;-76
2022/06/23 04:24:26;;;;;;;11.57;7.20;;;;;;;;;;5073331;28;20768;-74
2022/06/23 04:26:56;;;;;;;12.33;7.20;;;;;;;;;;5074081;28;20445;-75
2022/06/23 04:29:25;;;;;;;11.57;7.37;;;;;;;;;;5073996;28;20440;-74
2022/06/23 04:31:55;;;;;;;10.07;7.40;;;;;;;;;;5073781;28;20475;-76
2022/06/23 04:34:24;;;;;;;16.57;8.10;;;;;;;;;;5073593;28;20428;-74
2022/06/23 04:36:51;;;;;;;16.83;8.93;;;;;;;;;;5074115;28;20444;-75
2022/06/23 04:39:20;;;;;;;12.97;7.40;;;;;;;;;;5073924;28;20472;-76
2022/06/23 04:41:52;;;;;;;8.57;7.30;;;;;;;;;;5073583;28;20956;-74
2022/06/23 04:44:21;;;;;;;13.77;8.00;;;;;;;;;;5073458;28;20479;-76
2022/06/23 04:46:49;;;;;;;11.43;7.90;;;;;;;;;;5074035;28;20515;-76
2022/06/23 04:49:19;;;;;;;11.67;9.10;;;;;;;;;;5073335;28;20437;-75
2022/06/23 04:51:49;;;;;;;16.43;8.13;;;;;;;;;;5073350;28;20465;-75
2022/06/23 04:54:18;;;;;;;11.77;8.23;;;;;;;;;;5073461;28;20985;-75
2022/06/23 04:56:46;;;;;;;11.80;8.00;;;;;;;;;;5073490;28;20437;-75
2022/06/23 04:59:17;;;;;;;13.30;8.00;;;;;;;;;;5073449;28;20552;-76
2022/06/23 05:01:46;;;;;;;12.27;7.67;;;;;;;;;;5073012;28;20461;-75
2022/06/23 05:04:17;;;;;;;11.50;8.00;;;;;;;;;;5073029;28;20498;-75
2022/06/23 05:06:47;;;;;;;11.77;8.27;;;;;;;;;;5073484;28;20428;-75
2022/06/23 05:09:19;;;;;;;13.03;8.20;;;;;;;;;;5061417;28;20437;-75
2022/06/23 05:11:48;;;;;;;13.40;8.47;;;;;;;;;;5053161;28;20889;-75
2022/06/23 05:14:18;;;;;;;15.17;8.03;;;;;;;;;;5053145;28;20454;-75
2022/06/23 05:16:47;;;;;;;11.63;7.90;;;;;;;;;;5052784;28;20438;-75
2022/06/23 05:19:18;;;;;;;14.17;8.00;;;;;;;;;;5053002;28;20477;-76
2022/06/23 05:21:47;;;;;;;8.97;7.10;;;;;;;;;;5052678;28;20462;-77
2022/06/23 05:24:17;;;;;;;20.40;9.00;;;;;;;;;;5052390;28;20438;-74
2022/06/23 05:26:47;;;;;;;13.53;8.20;;;;;;;;;;5053079;28;20937;-75
2022/06/23 05:29:17;;;;;;;9.43;8.40;;;;;;;;;;5062135;28;20438;-76
2022/06/23 05:31:45;;;;;;;13.53;8.30;;;;;;;;;;5061908;28;20509;-75
2022/06/23 05:34:15;;;;;;;15.00;7.33;;;;;;;;;;5065456;28;20464;-75
2022/06/23 05:36:45;;;;;;;10.87;8.23;;;;;;;;;;5080124;28;20441;-75
2022/06/23 05:39:17;;;;;;;14.80;7.77;;;;;;;;;;5084075;28;20557;-74
2022/06/23 05:41:46;;;;;;;10.10;6.87;;;;;;;;;;5075746;28;20461;-75
2022/06/23 05:44:17;;;;;;;11.73;7.07;;;;;;;;;;5072146;28;20860;-76
2022/06/23 05:46:44;;;;;;;13.93;7.60;;;;;;;;;;5073043;28;20480;-75
2022/06/23 05:49:15;;;;;;;10.97;8.10;;;;;;;;;;5073671;28;20565;-74
2022/06/23 05:51:46;;;;;;;11.57;8.17;;;;;;;;;;5072375;28;20464;-75
2022/06/23 05:54:20;;;;;;;10.53;7.43;;;;;;;;;;5072328;28;20491;-75
2022/06/23 05:56:50;;;;;;;12.70;7.23;;;;;;;;;;5072592;28;20455;-75
2022/06/23 05:59:19;;;;;;;12.47;7.10;;;;;;;;;;5072536;28;20480;-75
2022/06/23 06:01:48;;;;;;;13.63;7.73;;;;;;;;;;5072298;28;20465;-74
2022/06/23 06:04:18;;;;;;;11.70;6.67;;;;;;;;;;5072306;28;20932;-75
2022/06/23 06:06:46;;;;;;;14.33;7.43;;;;;;;;;;5072661;28;20452;-75
2022/06/23 06:12:03;;;;;;;11.67;7.47;;;;;;;;;;5072610;28;20526;-76
2022/06/23 06:14:31;;;;;;;9.60;8.30;;;;;;;;;;5071877;28;21024;-74
2022/06/23 06:16:58;;;;;;;16.13;7.80;;;;;;;;;;5072146;28;20513;-74
2022/06/23 06:19:27;;;;;;;12.83;7.17;;;;;;;;;;5072703;28;20468;-76
2022/06/23 06:21:56;;;;;;;15.93;8.40;;;;;;;;;;5072334;28;20461;-75
2022/06/23 06:24:33;;;;;;;10.73;8.53;;;;;;;;;;5072266;28;20444;-75
2022/06/23 06:27:02;;;;;;;12.77;7.73;;;;;;;;;;5071397;28;20998;-75
2022/06/23 06:29:32;;;;;;;12.03;8.73;;;;;;;;;;5070738;28;20990;-75
2022/06/23 06:32:04;;;;;;;15.90;9.03;;;;;;;;;;5070348;28;20515;-75
2022/06/23 06:34:33;;;;;;;12.70;9.40;;;;;;;;;;5070854;28;20895;-76
2022/06/23 06:37:00;;;;;;;16.03;8.80;;;;;;;;;;5070985;28;20452;-75
2022/06/23 06:39:30;;;;;;;11.77;9.70;;;;;;;;;;5070793;28;20970;-75
2022/06/23 06:41:59;;;;;;;12.80;8.53;;;;;;;;;;5070457;28;20518;-74
2022/06/23 06:44:26;;;;;;;11.73;8.47;;;;;;;;;;5070348;28;20448;-76
2022/06/23 06:46:55;;;;;;;13.50;8.40;;;;;;;;;;5070847;28;20443;-76
2022/06/23 06:49:24;;;;;;;14.70;10.40;;;;;;;;;;5070494;28;20433;-76
2022/06/23 06:51:52;;;;;;;13.07;8.53;;;;;;;;;;5071342;28;20468;-75
2022/06/23 06:54:22;;;;;;;15.20;8.63;;;;;;;;;;5070224;28;20506;-75
2022/06/23 06:56:52;;;;;;;13.50;8.30;;;;;;;;;;5070766;28;20441;-76
2022/06/23 06:59:21;;;;;;;13.30;9.70;;;;;;;;;;5070618;28;21154;-75
2022/06/23 07:01:51;;;;;;;13.90;8.93;;;;;;;;;;5070641;28;20457;-75
2022/06/23 07:04:19;;;;;;;15.27;8.80;;;;;;;;;;5070381;28;20567;-75
2022/06/23 07:06:48;;;;;;;11.57;8.27;;;;;;;;;;5070432;28;20444;-75
2022/06/23 07:09:22;;;;;;;11.30;8.67;;;;;;;;;;5056927;28;20526;-74
2022/06/23 07:11:54;;;;;;;11.10;7.00;;;;;;;;;;5050834;28;20469;-77
2022/06/23 07:14:24;;;;;;;10.23;8.03;;;;;;;;;;5050532;28;20926;-76
2022/06/23 07:16:54;;;;;;;9.97;7.67;;;;;;;;;;5051372;28;21191;-75
2022/06/23 07:19:24;;;;;;;11.67;7.07;;;;;;;;;;5051156;28;20485;-75
2022/06/23 07:21:54;;;;;;;11.70;6.30;;;;;;;;;;5051072;28;20812;-75
2022/06/23 07:24:25;;;;;;;8.93;5.40;;;;;;;;;;5050626;28;20437;-75
2022/06/23 07:26:56;;;;;;;8.33;5.73;;;;;;;;;;5050747;28;20890;-75
2022/06/23 07:29:27;;;;;;;11.30;6.10;;;;;;;;;;5051469;28;20469;-74
2022/06/23 07:31:58;;;;;;;12.73;5.60;;;;;;;;;;5051095;28;20465;-75
2022/06/23 07:34:26;;;;;;;9.10;5.70;;;;;;;;;;5050866;28;20457;-75
2022/06/23 07:36:56;;;;;;;6.90;4.67;;;;;;;;;;5050381;28;20944;-77
2022/06/23 07:39:25;;;;;;;17.03;6.83;;;;;;;;;;5052972;28;20573;-77
2022/06/23 07:41:56;;;;;;;8.70;5.17;;;;;;;;;;5054250;28;20523;-76
2022/06/23 07:44:26;;;;;;;12.70;5.57;;;;;;;;;;5054230;28;20437;-75
2022/06/23 07:46:54;;;;;;;9.40;5.07;;;;;;;;;;5063364;28;20444;-75
2022/06/23 07:49:21;;;;;;;10.23;5.97;;;;;;;;;;5074014;28;20448;-77
2022/06/23 07:51:48;;;;;;;10.20;4.47;;;;;;;;;;5073766;28;20488;-77
2022/06/23 07:54:17;;;;;;;7.27;4.33;;;;;;;;;;5073420;28;20436;-74
2022/06/23 07:56:44;;;;;;;8.70;4.13;;;;;;;;;;5073858;28;20444;-78
2022/06/23 07:59:14;;;;;;;8.83;4.90;;;;;;;;;;5073497;28;20460;-76
2022/06/23 08:01:43;;;;;;;7.80;5.27;;;;;;;;;;5073469;28;20456;-76
2022/06/23 08:04:15;;;;;;;10.23;5.43;;;;;;;;;;5073179;28;20436;-76
2022/06/23 08:06:42;;;;;;;8.13;4.87;;;;;;;;;;5073482;28;20452;-74
2022/06/23 08:09:15;;;;;;;7.67;4.40;;;;;;;;;;5061782;28;20438;-76
2022/06/23 08:14:30;;;;;;;11.00;5.37;;;;;;;;;;5072744;28;20412;-75
2022/06/23 08:16:56;;;;;;;9.10;5.13;;;;;;;;;;5072957;28;20852;-76
2022/06/23 08:19:29;;;;;;;8.20;5.20;;;;;;;;;;5072725;28;20436;-77
2022/06/23 08:21:57;;;;;;;5.97;4.87;;;;;;;;;;5073015;28;20468;-75
2022/06/23 08:24:25;;;;;;;8.17;5.03;;;;;;;;;;5065537;28;20510;-77
2022/06/23 08:26:53;;;;;;;12.57;5.43;;;;;;;;;;5061639;28;20441;-76
2022/06/23 08:29:23;;;;;;;9.57;5.30;;;;;;;;;;5072753;28;20449;-75
2022/06/23 08:31:52;;;;;;;9.50;4.23;;;;;;;;;;5072200;28;21345;-75
2022/06/23 08:34:19;;;;;;;8.27;4.93;;;;;;;;;;5072173;28;20441;-77
2022/06/23 08:36:47;;;;;;;7.80;5.17;;;;;;;;;;5072458;28;20793;-75
2022/06/23 08:39:16;;;;;;;8.47;4.17;;;;;;;;;;5072485;28;20436;-76
2022/06/23 08:41:45;;;;;;;9.47;3.83;;;;;;;;;;5072433;28;20514;-75
2022/06/23 08:44:19;;;;;;;9.23;3.57;;;;;;;;;;5072390;28;20452;-77
2022/06/23 08:46:50;;;;;;;9.93;4.17;;;;;;;;;;5072426;28;20487;-76
2022/06/23 08:49:23;;;;;;;7.83;3.10;;;;;;;;;;5072372;28;20862;-76
2022/06/23 08:51:53;;;;;;;7.57;3.53;;;;;;;;;;5071662;28;20502;-75
2022/06/23 08:54:22;;;;;;;8.30;4.00;;;;;;;;;;5071971;28;20979;-78
2022/06/23 08:56:51;;;;;;;9.43;4.20;;;;;;;;;;5072054;28;20941;-76
2022/06/23 08:59:22;;;;;;;12.40;4.53;;;;;;;;;;5072083;28;20499;-76
2022/06/23 09:01:54;;;;;;;6.97;3.67;;;;;;;;;;5071866;28;20484;-76
2022/06/23 09:04:27;;;;;;;8.63;4.40;;;;;;;;;;5071622;28;20448;-77
2022/06/23 09:06:58;;;;;;;6.90;4.20;;;;;;;;;;5072022;28;20895;-76
2022/06/23 09:09:30;;;;;;;9.13;4.63;;;;;;;;;;5057100;28;20441;-75
2022/06/23 09:12:01;;;;;;;10.20;4.97;;;;;;;;;;5051897;28;20462;-77
2022/06/23 09:14:35;;;;;;;10.13;3.90;;;;;;;;;;5052059;28;20944;-75
2022/06/23 09:17:14;;;;;;;9.20;3.97;;;;;;;;;;5052051;28;20969;-75
2022/06/23 09:19:49;;;;;;;4.30;3.20;;;;;;;;;;5052133;28;20533;-75
2022/06/23 09:22:35;;;;;;;6.13;4.13;;;;;;;;;;5052004;28;20551;-76
2022/06/23 09:25:08;;;;;;;5.10;3.60;;;;;;;;;;5052362;28;20442;-78
2022/06/23 09:27:43;;;;;;;7.83;3.40;;;;;;;;;;5052043;28;20426;-77
2022/06/23 09:30:13;;;;;;;8.40;4.00;;;;;;;;;;5052332;28;20449;-75
2022/06/23 09:32:51;;;;;;;7.53;3.87;;;;;;;;;;5051639;28;20457;-76
2022/06/23 09:35:34;;;;;;;4.73;4.23;;;;;;;;;;5051825;28;20491;-76
2022/06/23 09:38:13;;;;;;;6.30;3.93;;;;;;;;;;5052285;28;20446;-77
2022/06/23 09:40:49;;;;;;;6.50;3.40;;;;;;;;;;5051844;28;20480;-76
2022/06/23 09:43:29;;;;;;;6.13;4.00;;;;;;;;;;5052162;28;20515;-75
2022/06/23 09:46:05;;;;;;;7.63;3.63;;;;;;;;;;5051602;28;20449;-75
2022/06/23 09:48:40;;;;;;;6.53;3.00;;;;;;;;;;5051373;28;20506;-75
2022/06/23 09:51:16;;;;;;;7.73;4.20;;;;;;;;;;5051344;28;20827;-75
2022/06/23 09:54:05;;;;;;;5.97;3.60;;;;;;;;;;5051150;28;20507;-77
2022/06/23 09:56:51;;;;;;;6.63;3.80;;;;;;;;;;5046608;28;20539;-77
2022/06/23 09:59:28;;;;;;;7.07;4.10;;;;;;;;;;5051348;28;20493;-75
2022/06/23 10:01:58;;;;;;;8.60;3.83;;;;;;;;;;5049764;28;20566;-75
2022/06/23 10:04:31;;;;;;;8.20;4.03;;;;;;;;;;5051061;28;20457;-76
2022/06/23 10:07:25;;;;;;;6.23;3.93;;;;;;;;;;5050845;28;20929;-77
2022/06/23 10:10:03;;;;;;;11.10;4.83;;;;;;;;;;5015241;28;20998;-76
2022/06/23 10:12:37;;;;;;;5.90;4.00;;;;;;;;;;5051092;28;20951;-77
2022/06/23 10:15:12;;;;;;;6.87;4.73;;;;;;;;;;5051393;28;20445;-76
2022/06/23 10:17:45;;;;;;;5.70;3.87;;;;;;;;;;5051559;28;20520;-75
2022/06/23 10:20:23;;;;;;;8.03;4.50;;;;;;;;;;5051115;28;20481;-76
2022/06/23 10:22:58;;;;;;;7.20;4.53;;;;;;;;;;5050955;28;20437;-75
2022/06/23 10:25:46;;;;;;;7.43;3.97;;;;;;;;;;5050889;28;20449;-76
2022/06/23 10:28:21;;;;;;;7.70;4.23;;;;;;;;;;5045970;28;20817;-76
2022/06/23 10:30:53;;;;;;;6.33;3.70;;;;;;;;;;5050957;28;20461;-77
2022/06/23 10:33:44;;;;;;;7.27;3.63;;;;;;;;;;5057072;28;20851;-76
2022/06/23 10:36:22;;;;;;;8.70;3.90;;;;;;;;;;5070698;28;20490;-76
2022/06/23 10:39:02;;;;;;;9.70;3.60;;;;;;;;;;5070508;28;20796;-77
2022/06/23 10:41:40;;;;;;;8.10;3.47;;;;;;;;;;5070268;28;20499;-76
2022/06/23 10:44:20;;;;;;;7.50;3.63;;;;;;;;;;5071054;28;20448;-77
2022/06/23 10:46:50;;;;;;;6.03;3.00;;;;;;;;;;5070963;28;20489;-76
2022/06/23 10:49:28;;;;;;;5.60;3.57;;;;;;;;;;5070641;28;20527;-77
2022/06/23 10:52:10;;;;;;;6.73;3.70;;;;;;;;;;5070549;28;20464;-78
2022/06/23 10:54:49;;;;;;;8.77;3.23;;;;;;;;;;5068577;28;20952;-76
2022/06/23 10:57:36;;;;;;;8.60;3.70;;;;;;;;;;5070680;28;20851;-77
2022/06/23 11:00:09;;;;;;;7.70;3.20;;;;;;;;;;5070167;28;20445;-78
2022/06/23 11:02:59;;;;;;;6.20;3.33;;;;;;;;;;5070113;28;20475;-77
2022/06/23 11:05:42;;;;;;;6.33;2.70;;;;;;;;;;5070317;28;20444;-76
2022/06/23 11:08:21;;;;;;;5.40;2.90;;;;;;;;;;5070186;28;20959;-75
2022/06/23 11:10:55;;;;;;;6.27;3.23;;;;;;;;;;5070474;28;20746;-77
2022/06/23 11:13:27;;;;;;;4.20;2.53;;;;;;;;;;5070853;28;20433;-77
2022/06/23 11:15:59;;;;;;;8.33;3.20;;;;;;;;;;5075003;28;20444;-77
2022/06/23 11:18:37;;;;;;;5.53;2.83;;;;;;;;;;5074010;28;20453;-76
2022/06/23 11:21:14;;;;;;;7.70;2.90;;;;;;;;;;5074067;28;20586;-76
2022/06/23 11:23:45;;;;;;;6.13;2.17;;;;;;;;;;5073986;28;20539;-77
2022/06/23 11:26:20;;;;;;;8.07;2.87;;;;;;;;;;5074020;28;20860;-77
2022/06/23 11:28:55;;;;;;;4.60;2.60;;;;;;;;;;5074255;28;20448;-77
2022/06/23 11:31:27;;;;;;;5.73;2.67;;;;;;;;;;5073723;28;20516;-76
2022/06/23 11:34:11;;;;;;;6.63;2.90;;;;;;;;;;5073910;28;20509;-77
2022/06/23 11:36:44;;;;;;;5.37;2.47;;;;;;;;;;5064069;28;20448;-77
2022/06/23 11:39:26;;;;;;;7.77;2.77;;;;;;;;;;5074293;28;20905;-78
2022/06/23 11:42:01;;;;;;;8.97;3.00;;;;;;;;;;5074066;28;20526;-76
2022/06/23 11:44:39;;;;;;;7.90;2.83;;;;;;;;;;5074169;28;20448;-75
2022/06/23 11:47:14;;;;;;;8.50;4.00;;;;;;;;;;5074358;28;20440;-77
2022/06/23 11:49:53;;;;;;;10.60;3.20;;;;;;;;;;5076583;28;20433;-76
2022/06/23 11:52:34;;;;;;;7.90;2.43;;;;;;;;;;5073127;28;20874;-76
2022/06/23 11:55:14;;;;;;;8.63;2.80;;;;;;;;;;5059309;28;20487;-76
2022/06/23 11:57:51;;;;;;;7.20;2.53;;;;;;;;;;5073838;28;20444;-76
2022/06/23 12:00:19;;;;;;;7.07;2.80;;;;;;;;;;5074537;28;20459;-75
2022/06/23 12:02:55;;;;;;;7.60;2.63;;;;;;;;;;5073603;28;21644;-75
2022/06/23 12:05:25;;;;;;;4.43;2.77;;;;;;;;;;5073746;28;20505;-76
2022/06/23 12:08:10;;;;;;;6.70;3.23;;;;;;;;;;5073718;28;20449;-75
2022/06/23 12:10:38;;;;;;;7.57;3.00;;;;;;;;;;5071827;28;20464;-76
2022/06/23 12:13:06;;;;;;;5.70;2.70;;;;;;;;;;5072507;28;20459;-76
2022/06/23 12:15:35;;;;;;;10.13;2.63;;;;;;;;;;5072672;28;20444;-76
2022/06/23 12:18:06;;;;;;;7.33;3.10;;;;;;;;;;5072405;28;20429;-75
2022/06/23 12:20:36;;;;;;;5.73;3.13;;;;;;;;;;5072258;28;20470;-78
2022/06/23 12:23:08;;;;;;;7.73;2.97;;;;;;;;;;5072466;28;20516;-76
2022/06/23 12:25:39;;;;;;;5.20;2.93;;;;;;;;;;5073025;28;20535;-76
2022/06/23 12:28:12;;;;;;;6.20;3.10;;;;;;;;;;5072204;28;20567;-75
2022/06/23 12:30:42;;;;;;;6.43;3.00;;;;;;;;;;5072041;28;20472;-76
2022/06/23 12:33:14;;;;;;;6.27;2.70;;;;;;;;;;5072001;28;20456;-75
2022/06/23 12:35:44;;;;;;;6.80;2.67;;;;;;;;;;5072359;28;20445;-77
2022/06/23 12:38:15;;;;;;;8.60;3.47;;;;;;;;;;5071800;28;20987;-77
2022/06/23 12:40:44;;;;;;;4.20;2.70;;;;;;;;;;5072325;28;20457;-77
2022/06/23 12:43:14;;;;;;;7.03;3.53;;;;;;;;;;5072224;28;20531;-77
2022/06/23 12:45:59;;;;;;;8.87;3.17;;;;;;;;;;5072322;28;20779;-78
2022/06/23 12:48:41;;;;;;;8.87;2.77;;;;;;;;;;5072520;28;20495;-76
2022/06/23 12:51:12;;;;;;;9.10;3.00;;;;;;;;;;5072346;28;20468;-76
2022/06/23 12:54:00;;;;;;;6.20;2.27;;;;;;;;;;5071661;28;20439;-78
2022/06/23 12:56:32;;;;;;;5.67;3.07;;;;;;;;;;5066715;28;20456;-78
2022/06/23 12:59:03;;;;;;;5.87;3.07;;;;;;;;;;5071650;28;20482;-77
2022/06/23 13:01:37;;;;;;;3.07;2.40;;;;;;;;;;5071893;28;20641;-78
2022/06/23 13:04:06;;;;;;;5.73;3.40;;;;;;;;;;5082062;28;20463;-77
2022/06/23 13:06:35;;;;;;;6.00;2.60;;;;;;;;;;5073038;28;20437;-76
2022/06/23 13:09:09;;;;;;;6.20;2.97;;;;;;;;;;5071197;28;20460;-75
2022/06/23 13:11:40;;;;;;;4.13;3.03;;;;;;;;;;5071099;28;20468;-77
2022/06/23 13:14:11;;;;;;;5.10;2.90;;;;;;;;;;5070858;28;20425;-77
2022/06/23 13:16:42;;;;;;;4.90;2.97;;;;;;;;;;5071151;28;20759;-75
2022/06/23 13:19:14;;;;;;;7.73;3.30;;;;;;;;;;5071241;28;20511;-76
2022/06/23 13:21:41;;;;;;;6.30;2.80;;;;;;;;;;5070979;28;20487;-77
2022/06/23 13:24:10;;;;;;;12.10;3.23;;;;;;;;;;5070902;28;20533;-77
2022/06/23 13:26:38;;;;;;;7.20;4.37;;;;;;;;;;5071072;28;20440;-77
2022/06/23 13:29:08;;;;;;;6.97;3.20;;;;;;;;;;5070715;28;20440;-77
2022/06/23 13:31:37;;;;;;;5.90;3.00;;;;;;;;;;5070509;28;20835;-77
2022/06/23 13:34:06;;;;;;;7.00;2.97;;;;;;;;;;5072165;28;20513;-77
2022/06/23 13:36:40;;;;;;;5.70;2.87;;;;;;;;;;5075283;28;20502;-76
2022/06/23 13:39:13;;;;;;;3.97;2.70;;;;;;;;;;5075028;28;20436;-77
2022/06/23 13:41:44;;;;;;;8.50;3.10;;;;;;;;;;5075878;28;20538;-77
2022/06/23 13:44:14;;;;;;;10.00;3.70;;;;;;;;;;5077145;28;20428;-76
2022/06/23 13:46:44;;;;;;;8.13;2.90;;;;;;;;;;5077414;28;20441;-77
2022/06/23 13:49:15;;;;;;;6.27;2.60;;;;;;;;;;5074191;28;20500;-78
2022/06/23 13:51:47;;;;;;;6.33;2.97;;;;;;;;;;5071438;28;20834;-77
2022/06/23 13:54:22;;;;;;;8.53;3.10;;;;;;;;;;5070684;28;20437;-75
2022/06/23 13:56:52;;;;;;;6.80;2.83;;;;;;;;;;5071144;28;20424;-77
2022/06/23 13:59:23;;;;;;;5.77;2.73;;;;;;;;;;5065526;28;20571;-77
2022/06/23 14:01:53;;;;;;;5.57;2.37;;;;;;;;;;5070605;28;21072;-77
2022/06/23 14:04:22;;;;;;;7.13;3.13;;;;;;;;;;5062448;28;20574;-77
2022/06/23 14:06:53;;;;;;;7.63;3.10;;;;;;;;;;5072211;28;20459;-76
2022/06/23 14:09:22;;;;;;;6.83;3.10;;;;;;;;;;5079426;28;20444;-76
2022/06/23 14:11:53;;;;;;;7.37;3.07;;;;;;;;;;5079382;28;20460;-77
2022/06/23 14:14:23;;;;;;;8.97;3.53;;;;;;;;;;5078165;28;20456;-77
2022/06/23 14:16:55;;;;;;;9.13;3.63;;;;;;;;;;5077150;28;20510;-77
2022/06/23 14:19:23;;;;;;;5.43;3.50;;;;;;;;;;5077032;28;20429;-76
2022/06/23 14:21:55;;;;;;;5.87;3.07;;;;;;;;;;5072174;28;20542;-78
2022/06/23 14:24:23;;;;;;;8.27;3.30;;;;;;;;;;5070309;28;20445;-78
2022/06/23 14:26:55;;;;;;;9.53;3.43;;;;;;;;;;5070565;28;20532;-78
2022/06/23 14:29:25;;;;;;;5.40;2.87;;;;;;;;;;5070802;28;20448;-77
2022/06/23 14:31:59;;;;;;;8.73;3.20;;;;;;;;;;5070329;28;20555;-77
2022/06/23 14:34:27;;;;;;;6.70;3.20;;;;;;;;;;5069740;28;20452;-77
2022/06/23 14:36:57;;;;;;;6.70;2.70;;;;;;;;;;5069868;28;20440;-78
2022/06/23 14:39:28;;;;;;;9.80;3.23;;;;;;;;;;5070413;28;20436;-77
2022/06/23 14:42:01;;;;;;;9.43;3.87;;;;;;;;;;5070399;28;21042;-76
2022/06/23 14:44:40;;;;;;;7.43;3.57;;;;;;;;;;5069983;28;20440;-77
2022/06/23 14:47:14;;;;;;;4.83;2.77;;;;;;;;;;5070022;28;20459;-78
2022/06/23 14:49:46;;;;;;;10.00;3.20;;;;;;;;;;5071513;28;20453;-77
2022/06/23 14:52:17;;;;;;;9.30;3.53;;;;;;;;;;5070130;28;20479;-78
2022/06/23 14:54:48;;;;;;;6.53;3.30;;;;;;;;;;5069670;28;20425;-77
2022/06/23 14:57:25;;;;;;;7.20;3.57;;;;;;;;;;5069445;28;20479;-76
2022/06/23 14:59:54;;;;;;;6.70;3.93;;;;;;;;;;5069193;28;20848;-76
2022/06/23 15:02:27;;;;;;;12.40;4.13;;;;;;;;;;5069178;28;21002;-76
2022/06/23 15:04:56;;;;;;;9.60;4.00;;;;;;;;;;5069531;28;20738;-77
2022/06/23 15:07:27;;;;;;;7.53;3.80;;;;;;;;;;5069268;28;20449;-77
2022/06/23 15:09:57;;;;;;;9.13;4.10;;;;;;;;;;5069473;28;20459;-79